FLIGHT INFORMATION
Southwest Airlines

SWA2692

At Arrival Gate

KATL
 KLAS
DATE: 2020-01-26
GATE: D1
GATE DEPARTURE: 23:15
TAKEOFF: 23:26
DATE: 2020-01-27
GATE:  -
LANDING: 03:22
GATE ARRIVAL: 03:26
FLIGHT DATA
Crew: MICHAEL ROTH
Speed: 476 kts Altitude: 38000 ft
Stage Length: 1514 nm
Route: 
Block Time: 4.2 Flight Time: 3.9
Fuel Used: 22215 LB
TRACK DATA
50000 FT1000 KTAltitudeSpeed
AIRCRAFT INFORMATION
Aircraft Type: B737BW
Registration: N210WN
SELCAL: NULL MSN/LN: 34162 / 1690
Operator: SOUTHWEST AIRLINES
Flights: 8 Block Time: 18 Flight Time: 15.7
Fuel Used: 118063 LB
  • DEPARTURE INFORMATION
    Date: 2020-01-26
    Airport: KATL
    Gate: D1
    Gate Departure: 23:15
    Takeoff: 23:26
    ARRIVAL INFORMATION
    Date: 2020-01-27
    Airport: KLAS
    Gate:  -
    Landing: 03:22
    Gate Arrival: 03:26
  • FLIGHT DATA
    Crew: MICHAEL ROTH
    Speed: 476 kts Altitude: 38000 ft
    Stage Length: 817 nm
    Route: 
    Block Time: 4.2 Flight Time: 3.9
    Fuel Used: 22215 LB
  • AIRCRAFT INFORMATION
    Aircraft Type: B737BW
    Registration: N210WN
    SELCAL: NULL MSN/LN: 34162 / 1690
    Operator: Southwest Airlines
    Flights: 8 Block Time: 18 Flight Time: 15.7
    Fuel Used: 118063 LB

DATALINK LOG | Newest first | Current as of: 2020-05-27 02:29:50
LABEL ID SEQUENCE CONTENT Dn/Up
QD273503:26 7.1▼ Dn
QC233803:22▼ Dn
2U0438KLAS 260356Z 00000KT 10SM BKN250 13/M01 A3011 RMK AO2 SLP192 T01331006▲ Up
2S0438KLAS▼ Dn
QB261323:26▼ Dn
QA152723:15 29.4▼ Dn
2U0825KATL 252252Z 31009KT 10SM FEW030 BKN250 06/M01 A3007 RMK AO2 SLP189 T00611006▲ Up
2S0825KATL▼ Dn
A30954CLEARED TO KLAS VIA CUTTN2 HANKO GAD MEM RZC PER LAA PUB HBU SINNN SITEE4. SQUAWK 4371.▲ Up
Q00852[LINK ACK]▲ Up
Q00847[LINK TEST]▼ Dn


AIRCRAFT HISTORY
FLIGHT DATE FLIGHT NUMBER ORIGIN DESTINATION ROUTE BLOCK TIME FLIGHT TIME FUEL USED (LB) PILOT
2020-03-06SWA326MMUN KHOU 2.52.211974Dan Downs
2020-02-28SWA305KHOU MMUN 2.11.810243Dan Downs
2020-02-07SWA449KDEN KHOU 2.31.910450Dan Downs
2020-02-04SWA635KSAN KDEN 2.31.911370Dan Downs
2020-02-04SWA635KRNO KSAN 1.31.16213Dan Downs
2020-01-26SWA128KLAS KRNO 1.61.27172Charles Harris
2020-01-26SWA2692KATL KLAS 4.23.922215Michael Roth
2020-01-24SWA124KMCO KATL 1.71.538426Randall Smith